createdAt,value
2022-08-08T00:02:03.854Z,11.57
2022-08-08T00:04:59.362Z,11.53
2022-08-08T00:08:09.236Z,11.53
2022-08-08T00:11:22.132Z,11.33
2022-08-08T00:14:48.503Z,11.18
2022-08-08T00:18:04.211Z,11.18
2022-08-08T00:21:08.161Z,11.12
2022-08-08T00:24:17.734Z,11.16
2022-08-08T00:27:23.855Z,11.17
2022-08-08T00:30:45.257Z,11.13
2022-08-08T00:34:34.892Z,11.22
2022-08-08T00:37:47.414Z,11.02
2022-08-08T00:41:54.516Z,10.82
2022-08-08T00:45:32.137Z,10.65
2022-08-08T00:49:32.176Z,10.65
2022-08-08T00:52:58.331Z,10.83
2022-08-08T00:56:19.787Z,10.95
2022-08-08T00:59:56.927Z,10.93
2022-08-08T01:04:02.128Z,10.81
2022-08-08T01:07:55.815Z,10.70
2022-08-08T01:11:24.316Z,10.57
2022-08-08T01:15:10.793Z,10.48
2022-08-08T01:19:02.642Z,10.14
2022-08-08T01:22:46.855Z,10.25
2022-08-08T01:26:24.131Z,10.13
2022-08-08T01:29:58.699Z,10.11
2022-08-08T01:33:42.878Z,10.25
2022-08-08T01:37:21.669Z,10.41
2022-08-08T01:40:47.290Z,10.53
2022-08-08T01:43:55.670Z,10.58
2022-08-08T01:48:15.737Z,10.38
2022-08-08T01:50:53.350Z,10.35
2022-08-08T01:55:16.348Z,10.22
2022-08-08T01:58:11.347Z,10.35
2022-08-08T02:01:15.766Z,10.48
2022-08-08T02:04:30.223Z,10.47
2022-08-08T02:07:51.882Z,10.34
2022-08-08T02:11:03.907Z,10.25
2022-08-08T02:14:13.379Z,10.24
2022-08-08T02:17:20.823Z,10.21
2022-08-08T02:21:02.388Z,10.24
2022-08-08T02:23:58.031Z,10.18
2022-08-08T02:27:08.118Z,10.11
2022-08-08T02:30:21.535Z,10.12
2022-08-08T02:34:08.580Z,10.28
2022-08-08T02:37:52.217Z,10.26
2022-08-08T02:40:57.904Z,10.13
2022-08-08T02:44:37.407Z,9.96
2022-08-08T02:48:29.113Z,9.97
2022-08-08T02:52:02.137Z,9.94
2022-08-08T02:55:31.962Z,9.97
2022-08-08T03:00:01.644Z,9.95
2022-08-08T03:05:04.494Z,9.83
2022-08-08T03:07:58.489Z,9.79
2022-08-08T03:11:59.783Z,9.82
2022-08-08T03:16:01.581Z,9.98
2022-08-08T03:18:52.246Z,10.07
2022-08-08T03:21:58.926Z,10.11
2022-08-08T03:25:14.677Z,10.28
2022-08-08T03:28:27.644Z,10.35
2022-08-08T03:32:06.340Z,10.31
2022-08-08T03:35:11.094Z,10.33
2022-08-08T03:38:53.438Z,10.41
2022-08-08T03:42:27.355Z,10.48
2022-08-08T03:46:05.640Z,10.62
2022-08-08T03:49:09.633Z,10.78
2022-08-08T03:51:52.478Z,10.79
2022-08-08T03:55:10.708Z,10.66
2022-08-08T03:58:34.814Z,10.59
2022-08-08T04:02:13.129Z,10.66
2022-08-08T04:05:10.282Z,10.73
2022-08-08T04:08:33.208Z,10.82
2022-08-08T04:11:58.085Z,10.87
2022-08-08T04:15:02.590Z,11.00
2022-08-08T04:18:05.840Z,11.21
2022-08-08T04:21:08.640Z,11.50
2022-08-08T04:24:18.999Z,12.10
2022-08-08T04:28:02.478Z,13.05
2022-08-08T04:30:46.467Z,12.93
2022-08-08T04:33:49.990Z,13.69
2022-08-08T04:36:52.501Z,14.96
2022-08-08T04:40:05.197Z,15.64
2022-08-08T04:43:10.396Z,15.85
2022-08-08T04:46:14.978Z,17.49
2022-08-08T04:49:17.585Z,17.45
2022-08-08T04:52:25.241Z,18.34
2022-08-08T04:55:47.519Z,19.16
2022-08-08T04:58:58.342Z,20.26
2022-08-08T05:02:02.260Z,20.38
2022-08-08T05:05:05.409Z,19.31
2022-08-08T05:08:18.539Z,19.37
2022-08-08T05:11:29.543Z,20.75
2022-08-08T05:14:41.778Z,21.69
2022-08-08T05:17:54.260Z,22.09
2022-08-08T05:20:57.258Z,22.30
2022-08-08T05:24:04.208Z,22.44
2022-08-08T05:27:07.949Z,22.29
2022-08-08T05:30:12.121Z,22.56
2022-08-08T05:33:16.868Z,22.82
2022-08-08T05:36:28.086Z,22.52
2022-08-08T05:39:35.138Z,22.49
2022-08-08T05:42:41.908Z,21.91
2022-08-08T05:45:54.810Z,21.67
2022-08-08T05:48:59.141Z,21.51
2022-08-08T05:52:03.714Z,21.14
2022-08-08T05:55:10.670Z,21.19
2022-08-08T05:58:19.890Z,21.28
2022-08-08T06:01:52.451Z,21.03
2022-08-08T06:04:57.470Z,21.41
2022-08-08T06:08:02.798Z,21.04
2022-08-08T06:11:13.453Z,20.69
2022-08-08T06:14:20.601Z,21.14
2022-08-08T06:17:51.410Z,21.10
2022-08-08T06:20:55.496Z,20.90
2022-08-08T06:24:04.873Z,21.13
2022-08-08T06:27:11.551Z,20.67
2022-08-08T06:30:20.187Z,20.56
2022-08-08T06:34:26.427Z,21.00
2022-08-08T06:37:24.112Z,21.82
2022-08-08T06:40:32.180Z,22.48
2022-08-08T06:43:37.456Z,22.56
2022-08-08T06:46:40.158Z,23.27
2022-08-08T06:49:54.892Z,23.59
2022-08-08T06:53:01.909Z,23.53
2022-08-08T06:56:16.985Z,23.44
2022-08-08T06:59:19.532Z,23.80
2022-08-08T07:02:28.841Z,23.76
2022-08-08T07:05:40.307Z,23.71
2022-08-08T07:08:49.478Z,23.96
2022-08-08T07:11:58.330Z,24.01
2022-08-08T07:15:05.989Z,24.09
2022-08-08T07:18:36.698Z,24.04
2022-08-08T07:21:42.130Z,24.61
2022-08-08T07:24:53.501Z,25.33
2022-08-08T07:28:02.882Z,26.91
2022-08-08T07:31:11.223Z,26.21
2022-08-08T07:34:20.333Z,27.46
2022-08-08T07:37:56.298Z,28.68
2022-08-08T07:41:04.344Z,28.77
2022-08-08T07:44:34.150Z,28.19
2022-08-08T07:47:38.844Z,27.14
2022-08-08T07:50:43.996Z,27.40
2022-08-08T07:54:02.607Z,27.23
2022-08-08T07:57:21.133Z,26.49
2022-08-08T08:00:28.229Z,27.36
2022-08-08T08:03:41.398Z,27.57
2022-08-08T08:06:47.203Z,27.19
2022-08-08T08:09:49.913Z,27.48
2022-08-08T08:12:59.168Z,27.69
2022-08-08T08:16:05.850Z,26.97
2022-08-08T08:19:12.623Z,28.06
2022-08-08T08:22:25.432Z,28.25
2022-08-08T08:25:43.556Z,28.00
2022-08-08T08:28:55.880Z,28.44
2022-08-08T08:31:59.285Z,30.11
2022-08-08T08:35:07.379Z,29.04
2022-08-08T08:38:17.637Z,29.57
2022-08-08T08:41:22.252Z,30.50
2022-08-08T08:44:28.936Z,30.73
2022-08-08T08:47:44.678Z,30.66
2022-08-08T08:50:52.112Z,30.64
2022-08-08T08:53:59.903Z,31.03
2022-08-08T08:57:15.402Z,30.29
2022-08-08T09:00:20.632Z,30.01
2022-08-08T09:03:46.068Z,30.33
2022-08-08T09:06:53.861Z,29.71
2022-08-08T09:09:59.600Z,30.40
2022-08-08T09:13:09.311Z,29.60
2022-08-08T09:16:13.719Z,30.03
2022-08-08T09:19:29.140Z,29.86
2022-08-08T09:22:40.325Z,30.30
2022-08-08T09:25:54.671Z,30.52
2022-08-08T09:29:08.203Z,30.71
2022-08-08T09:32:19.446Z,31.63
2022-08-08T09:35:32.301Z,31.11
2022-08-08T09:38:53.173Z,30.82
2022-08-08T09:42:20.019Z,30.97
2022-08-08T09:45:54.661Z,31.63
2022-08-08T09:48:57.040Z,31.81
2022-08-08T09:52:07.094Z,31.86
2022-08-08T09:55:12.834Z,32.62
2022-08-08T09:58:27.913Z,33.10
2022-08-08T10:01:59.711Z,33.14
2022-08-08T10:05:15.299Z,32.93
2022-08-08T10:08:18.000Z,33.12
2022-08-08T10:12:27.084Z,31.55
2022-08-08T10:14:43.600Z,30.73
2022-08-08T10:18:06.566Z,30.63
2022-08-08T10:21:25.714Z,30.93
2022-08-08T10:24:35.194Z,30.08
2022-08-08T10:27:42.981Z,31.20
2022-08-08T10:31:00.461Z,30.43
2022-08-08T10:34:19.044Z,29.77
2022-08-08T10:37:27.620Z,28.17
2022-08-08T10:40:32.932Z,28.06
2022-08-08T10:43:40.319Z,29.08
2022-08-08T10:46:46.187Z,29.95
2022-08-08T10:50:01.816Z,30.69
2022-08-08T10:53:11.641Z,31.27
2022-08-08T10:56:27.902Z,30.76
2022-08-08T10:59:39.770Z,31.68
2022-08-08T11:02:43.338Z,31.86
2022-08-08T11:05:51.911Z,31.24
2022-08-08T11:09:15.182Z,31.62
2022-08-08T11:12:23.958Z,32.10
2022-08-08T11:15:32.262Z,32.59
2022-08-08T11:18:36.099Z,31.75
2022-08-08T11:21:45.280Z,30.98
2022-08-08T11:25:03.099Z,30.45
2022-08-08T11:28:23.954Z,29.84
2022-08-08T11:31:46.758Z,30.31
2022-08-08T11:35:37.498Z,30.07
2022-08-08T11:38:35.797Z,29.47
2022-08-08T11:41:44.973Z,28.44
2022-08-08T11:44:49.346Z,27.94
2022-08-08T11:48:04.532Z,27.93
2022-08-08T11:51:38.185Z,27.76
2022-08-08T11:54:33.891Z,27.77
2022-08-08T11:57:38.938Z,27.24
2022-08-08T12:00:45.367Z,27.45
2022-08-08T12:03:53.943Z,27.46
2022-08-08T12:07:04.898Z,27.71
2022-08-08T12:10:18.220Z,27.56
2022-08-08T12:13:38.194Z,27.88
2022-08-08T12:16:52.231Z,28.64
2022-08-08T12:19:57.757Z,28.73
2022-08-08T12:23:00.417Z,29.23
2022-08-08T12:26:09.722Z,28.49
2022-08-08T12:29:40.841Z,29.24
2022-08-08T12:32:48.081Z,28.42
2022-08-08T12:35:52.045Z,27.38
2022-08-08T12:38:55.819Z,27.24
2022-08-08T12:42:01.885Z,27.18
2022-08-08T12:45:58.421Z,27.39
2022-08-08T12:48:37.874Z,27.24
2022-08-08T12:51:42.243Z,29.06
2022-08-08T12:55:13.122Z,29.29
2022-08-08T12:58:19.471Z,30.45
2022-08-08T13:01:36.337Z,31.14
2022-08-08T13:04:51.111Z,31.77
2022-08-08T13:08:03.152Z,30.60
2022-08-08T13:11:18.906Z,29.51
2022-08-08T13:14:21.431Z,28.87
2022-08-08T13:18:08.046Z,28.75
2022-08-08T13:20:50.090Z,29.69
2022-08-08T13:23:52.720Z,29.38
2022-08-08T13:27:02.769Z,28.14
2022-08-08T13:30:07.202Z,27.18
2022-08-08T13:33:11.873Z,26.78
2022-08-08T13:36:26.300Z,26.34
2022-08-08T13:39:29.293Z,26.41
2022-08-08T13:42:34.410Z,26.59
2022-08-08T13:45:37.692Z,26.74
2022-08-08T13:50:33.415Z,26.96
2022-08-08T13:52:23.416Z,27.35
2022-08-08T13:55:36.327Z,27.20
2022-08-08T13:58:57.500Z,27.40
2022-08-08T14:02:07.474Z,27.73
2022-08-08T14:05:20.507Z,28.06
2022-08-08T14:08:30.550Z,28.06
2022-08-08T14:11:37.558Z,27.59
2022-08-08T14:14:43.423Z,27.39
2022-08-08T14:17:58.983Z,27.20
2022-08-08T14:21:20.319Z,26.42
2022-08-08T14:24:31.482Z,26.16
2022-08-08T14:27:37.588Z,25.94
2022-08-08T14:30:47.621Z,25.84
2022-08-08T14:33:54.706Z,25.75
2022-08-08T14:36:58.686Z,25.97
2022-08-08T14:40:06.608Z,25.98
2022-08-08T14:43:22.171Z,25.93
2022-08-08T14:46:33.060Z,26.15
2022-08-08T14:49:51.630Z,26.19
2022-08-08T14:53:04.288Z,26.34
2022-08-08T14:56:07.530Z,26.24
2022-08-08T14:59:31.685Z,25.94
2022-08-08T15:02:35.556Z,26.00
2022-08-08T15:05:42.962Z,25.63
2022-08-08T15:08:58.663Z,25.50
2022-08-08T15:12:01.511Z,25.42
2022-08-08T15:15:06.894Z,25.43
2022-08-08T15:18:11.901Z,25.41
2022-08-08T15:21:14.688Z,25.49
2022-08-08T15:24:19.908Z,25.54
2022-08-08T15:28:03.326Z,25.39
2022-08-08T15:30:48.888Z,25.34
2022-08-08T15:33:59.877Z,25.12
2022-08-08T15:37:05.036Z,25.00
2022-08-08T15:40:10.977Z,24.88
2022-08-08T15:43:35.383Z,25.00
2022-08-08T15:46:39.030Z,25.01
2022-08-08T15:49:49.059Z,24.98
2022-08-08T15:52:52.610Z,25.12
2022-08-08T15:55:56.662Z,25.20
2022-08-08T15:59:01.716Z,25.08
2022-08-08T16:02:07.926Z,25.08
2022-08-08T16:05:15.753Z,25.31
2022-08-08T16:08:20.243Z,25.21
2022-08-08T16:13:07.388Z,25.14
2022-08-08T16:14:53.756Z,24.96
2022-08-08T16:18:06.193Z,25.09
2022-08-08T16:21:26.477Z,25.30
2022-08-08T16:24:29.780Z,25.40
2022-08-08T16:27:35.352Z,25.24
2022-08-08T16:30:39.556Z,25.31
2022-08-08T16:33:42.986Z,25.70
2022-08-08T16:37:00.890Z,25.46
2022-08-08T16:40:04.154Z,25.01
2022-08-08T16:43:08.517Z,24.87
2022-08-08T16:46:44.903Z,24.94
2022-08-08T16:49:38.478Z,25.29
2022-08-08T16:55:01.419Z,25.37
2022-08-08T16:56:08.849Z,25.02
2022-08-08T16:59:18.308Z,24.85
2022-08-08T17:02:42.836Z,25.15
2022-08-08T17:05:45.636Z,25.51
2022-08-08T17:08:48.236Z,25.45
2022-08-08T17:11:56.722Z,25.58
2022-08-08T17:15:17.823Z,25.61
2022-08-08T17:18:24.910Z,25.52
2022-08-08T17:21:27.686Z,25.39
2022-08-08T17:24:34.830Z,25.28
2022-08-08T17:27:46.413Z,25.12
2022-08-08T17:30:51.421Z,24.95
2022-08-08T17:34:52.769Z,24.76
2022-08-08T17:37:19.311Z,24.55
2022-08-08T17:40:22.320Z,24.37
2022-08-08T17:43:26.034Z,24.32
2022-08-08T17:46:37.282Z,24.23
2022-08-08T17:49:43.338Z,24.04
2022-08-08T17:52:47.824Z,23.81
2022-08-08T17:56:05.411Z,23.71
2022-08-08T17:59:10.492Z,23.47
2022-08-08T18:02:18.925Z,23.28
2022-08-08T18:05:23.991Z,23.01
2022-08-08T18:08:41.888Z,22.98
2022-08-08T18:11:51.095Z,22.83
2022-08-08T18:14:53.804Z,22.71
2022-08-08T18:18:09.545Z,22.50
2022-08-08T18:21:34.523Z,22.26
2022-08-08T18:24:38.228Z,22.10
2022-08-08T18:27:45.240Z,21.91
2022-08-08T18:30:47.738Z,21.78
2022-08-08T18:34:11.378Z,21.68
2022-08-08T18:37:17.578Z,21.49
2022-08-08T18:40:36.444Z,21.34
2022-08-08T18:43:43.091Z,21.17
2022-08-08T18:46:55.506Z,21.03
2022-08-08T18:50:02.867Z,20.87
2022-08-08T18:53:05.722Z,20.63
2022-08-08T18:56:20.996Z,20.50
2022-08-08T18:59:24.523Z,20.27
2022-08-08T19:02:31.643Z,20.13
2022-08-08T19:05:38.538Z,20.06
2022-08-08T19:08:48.080Z,20.04
2022-08-08T19:11:51.506Z,20.02
2022-08-08T19:14:57.283Z,20.02
2022-08-08T19:18:32.102Z,20.01
2022-08-08T19:21:30.699Z,19.86
2022-08-08T19:24:38.945Z,19.71
2022-08-08T19:28:00.001Z,19.59
2022-08-08T19:31:08.902Z,19.64
2022-08-08T19:34:29.824Z,19.66
2022-08-08T19:37:43.039Z,19.60
2022-08-08T19:40:55.775Z,19.61
2022-08-08T19:44:04.124Z,19.67
2022-08-08T19:47:15.914Z,19.70
2022-08-08T19:50:18.487Z,19.69
2022-08-08T19:53:53.830Z,19.68
2022-08-08T19:56:48.903Z,19.73
2022-08-08T19:59:51.774Z,19.82
2022-08-08T20:02:54.330Z,19.81
2022-08-08T20:06:14.117Z,19.75
2022-08-08T20:09:22.793Z,19.85
2022-08-08T20:12:32.065Z,19.90
2022-08-08T20:16:00.234Z,19.94
2022-08-08T20:18:59.812Z,19.90
2022-08-08T20:22:04.881Z,19.95
2022-08-08T20:25:20.233Z,20.00
2022-08-08T20:28:25.339Z,19.97
2022-08-08T20:31:47.161Z,19.88
2022-08-08T20:35:01.594Z,19.89
2022-08-08T20:38:04.639Z,19.86
2022-08-08T20:41:18.780Z,19.81
2022-08-08T20:44:21.908Z,19.71
2022-08-08T20:47:36.025Z,19.61
2022-08-08T20:50:39.228Z,19.50
2022-08-08T20:53:58.065Z,19.39
2022-08-08T20:57:17.378Z,19.40
2022-08-08T21:00:23.389Z,19.26
2022-08-08T21:03:26.192Z,19.20
2022-08-08T21:16:28.725Z,18.99
2022-08-08T21:19:44.020Z,18.86
2022-08-08T21:22:50.008Z,18.86
2022-08-08T21:25:54.837Z,18.77
2022-08-08T21:29:00.503Z,18.69
2022-08-08T21:32:05.154Z,18.59
2022-08-08T21:36:16.577Z,18.60
2022-08-08T21:38:32.579Z,18.54
2022-08-08T21:41:42.902Z,18.55
2022-08-08T21:44:58.143Z,18.52
2022-08-08T21:48:21.178Z,18.51
2022-08-08T21:54:18.773Z,18.47
2022-08-08T21:55:01.826Z,18.49
2022-08-08T21:58:09.499Z,18.49
2022-08-08T22:01:27.994Z,18.50
2022-08-08T22:04:38.683Z,18.52
2022-08-08T22:07:47.458Z,18.57
2022-08-08T22:10:51.110Z,18.59
2022-08-08T22:13:56.847Z,18.56
2022-08-08T22:17:01.576Z,18.60
2022-08-08T22:20:12.153Z,18.56
2022-08-08T22:23:17.503Z,18.59
2022-08-08T22:26:28.950Z,18.56
2022-08-08T22:30:00.972Z,18.56
2022-08-08T22:32:55.638Z,18.58
2022-08-08T22:36:04.675Z,18.58
2022-08-08T22:39:19.176Z,18.58
2022-08-08T22:42:24.176Z,18.59
2022-08-08T22:45:30.449Z,18.70
2022-08-08T22:48:32.945Z,18.74
2022-08-08T22:51:42.474Z,18.74
2022-08-08T22:55:04.337Z,18.72
2022-08-08T22:58:08.062Z,18.64
2022-08-08T23:01:16.573Z,18.65
2022-08-08T23:04:34.699Z,18.61
2022-08-08T23:07:49.188Z,18.60
2022-08-08T23:11:06.322Z,18.52
2022-08-08T23:14:16.308Z,18.38
2022-08-08T23:17:19.053Z,18.40
2022-08-08T23:20:22.205Z,18.34
2022-08-08T23:23:31.429Z,18.29
2022-08-08T23:26:35.329Z,18.33
2022-08-08T23:29:38.402Z,18.35
2022-08-08T23:32:44.212Z,18.33
2022-08-08T23:35:58.887Z,18.33
2022-08-08T23:39:10.459Z,18.34
2022-08-08T23:42:14.352Z,18.38
2022-08-08T23:45:19.306Z,18.32
2022-08-08T23:49:01.796Z,18.31
2022-08-08T23:52:08.752Z,18.37
2022-08-08T23:55:22.823Z,18.41
2022-08-08T23:58:37.175Z,18.38
